sensor_id;sensor_type;location;lat;lon;timestamp;P1;durP1;ratioP1;P2;durP2;ratioP2
50585;SDS011;36542;51.700;8.846;2023-10-19T00:02:04;29.97;;;19.70;;
50585;SDS011;36542;51.700;8.846;2023-10-19T00:04:31;30.40;;;20.63;;
50585;SDS011;36542;51.700;8.846;2023-10-19T00:06:59;27.70;;;18.13;;
50585;SDS011;36542;51.700;8.846;2023-10-19T00:09:25;32.37;;;17.00;;
50585;SDS011;36542;51.700;8.846;2023-10-19T00:11:56;28.77;;;17.30;;
50585;SDS011;36542;51.700;8.846;2023-10-19T00:14:22;29.90;;;20.07;;
50585;SDS011;36542;51.700;8.846;2023-10-19T00:16:51;26.97;;;19.03;;
50585;SDS011;36542;51.700;8.846;2023-10-19T00:19:21;33.10;;;21.80;;
50585;SDS011;36542;51.700;8.846;2023-10-19T00:21:47;31.23;;;20.53;;
50585;SDS011;36542;51.700;8.846;2023-10-19T00:24:17;34.53;;;22.37;;
50585;SDS011;36542;51.700;8.846;2023-10-19T00:26:47;30.67;;;19.37;;
50585;SDS011;36542;51.700;8.846;2023-10-19T00:29:13;30.00;;;19.20;;
50585;SDS011;36542;51.700;8.846;2023-10-19T00:31:58;31.13;;;18.70;;
50585;SDS011;36542;51.700;8.846;2023-10-19T00:34:25;28.37;;;18.40;;
50585;SDS011;36542;51.700;8.846;2023-10-19T00:36:53;30.10;;;18.80;;
50585;SDS011;36542;51.700;8.846;2023-10-19T00:39:20;31.30;;;19.27;;
50585;SDS011;36542;51.700;8.846;2023-10-19T00:41:46;35.17;;;20.33;;
50585;SDS011;36542;51.700;8.846;2023-10-19T00:44:12;32.70;;;18.30;;
50585;SDS011;36542;51.700;8.846;2023-10-19T00:46:41;30.13;;;19.00;;
50585;SDS011;36542;51.700;8.846;2023-10-19T00:49:07;30.67;;;17.80;;
50585;SDS011;36542;51.700;8.846;2023-10-19T00:57:04;29.63;;;16.53;;
50585;SDS011;36542;51.700;8.846;2023-10-19T00:59:33;30.57;;;16.70;;
50585;SDS011;36542;51.700;8.846;2023-10-19T01:02:12;34.27;;;18.93;;
50585;SDS011;36542;51.700;8.846;2023-10-19T01:04:42;27.90;;;16.90;;
50585;SDS011;36542;51.700;8.846;2023-10-19T01:07:10;30.13;;;17.90;;
50585;SDS011;36542;51.700;8.846;2023-10-19T01:09:51;29.30;;;16.77;;
50585;SDS011;36542;51.700;8.846;2023-10-19T01:12:19;34.17;;;17.33;;
50585;SDS011;36542;51.700;8.846;2023-10-19T01:17:39;29.73;;;16.00;;
50585;SDS011;36542;51.700;8.846;2023-10-19T01:23:02;28.50;;;14.63;;
50585;SDS011;36542;51.700;8.846;2023-10-19T01:31:41;32.17;;;13.77;;
50585;SDS011;36542;51.700;8.846;2023-10-19T01:34:20;28.27;;;16.30;;
50585;SDS011;36542;51.700;8.846;2023-10-19T01:36:47;26.17;;;15.87;;
50585;SDS011;36542;51.700;8.846;2023-10-19T01:39:15;26.43;;;15.33;;
50585;SDS011;36542;51.700;8.846;2023-10-19T01:41:43;28.07;;;15.63;;
50585;SDS011;36542;51.700;8.846;2023-10-19T01:44:09;25.33;;;15.80;;
50585;SDS011;36542;51.700;8.846;2023-10-19T01:46:38;26.43;;;14.67;;
50585;SDS011;36542;51.700;8.846;2023-10-19T01:49:04;22.67;;;12.30;;
50585;SDS011;36542;51.700;8.846;2023-10-19T01:51:31;25.03;;;12.67;;
50585;SDS011;36542;51.700;8.846;2023-10-19T01:53:58;23.17;;;13.77;;
50585;SDS011;36542;51.700;8.846;2023-10-19T01:56:25;18.40;;;12.23;;
50585;SDS011;36542;51.700;8.846;2023-10-19T01:58:52;19.73;;;12.57;;
50585;SDS011;36542;51.700;8.846;2023-10-19T02:01:19;21.20;;;12.33;;
50585;SDS011;36542;51.700;8.846;2023-10-19T02:03:46;20.27;;;11.37;;
50585;SDS011;36542;51.700;8.846;2023-10-19T02:06:17;20.77;;;12.87;;
50585;SDS011;36542;51.700;8.846;2023-10-19T02:08:48;19.20;;;11.70;;
50585;SDS011;36542;51.700;8.846;2023-10-19T02:11:26;18.90;;;11.97;;
50585;SDS011;36542;51.700;8.846;2023-10-19T02:13:53;18.63;;;11.07;;
50585;SDS011;36542;51.700;8.846;2023-10-19T02:16:20;20.10;;;12.47;;
50585;SDS011;36542;51.700;8.846;2023-10-19T02:18:47;18.30;;;11.73;;
50585;SDS011;36542;51.700;8.846;2023-10-19T02:21:14;21.00;;;12.60;;
50585;SDS011;36542;51.700;8.846;2023-10-19T02:23:44;17.83;;;12.33;;
50585;SDS011;36542;51.700;8.846;2023-10-19T02:26:09;23.13;;;13.13;;
50585;SDS011;36542;51.700;8.846;2023-10-19T02:28:38;21.67;;;12.13;;
50585;SDS011;36542;51.700;8.846;2023-10-19T02:31:04;24.70;;;13.73;;
50585;SDS011;36542;51.700;8.846;2023-10-19T02:33:41;23.33;;;13.13;;
50585;SDS011;36542;51.700;8.846;2023-10-19T02:36:16;27.47;;;14.83;;
50585;SDS011;36542;51.700;8.846;2023-10-19T02:38:44;28.17;;;13.83;;
50585;SDS011;36542;51.700;8.846;2023-10-19T02:41:17;27.00;;;15.30;;
50585;SDS011;36542;51.700;8.846;2023-10-19T02:43:46;27.87;;;14.90;;
50585;SDS011;36542;51.700;8.846;2023-10-19T02:46:16;23.13;;;13.60;;
50585;SDS011;36542;51.700;8.846;2023-10-19T02:48:43;23.67;;;13.70;;
50585;SDS011;36542;51.700;8.846;2023-10-19T02:51:15;27.90;;;15.47;;
50585;SDS011;36542;51.700;8.846;2023-10-19T02:53:40;26.07;;;14.57;;
50585;SDS011;36542;51.700;8.846;2023-10-19T02:56:11;22.50;;;13.57;;
50585;SDS011;36542;51.700;8.846;2023-10-19T02:58:40;26.47;;;14.07;;
50585;SDS011;36542;51.700;8.846;2023-10-19T03:01:14;23.30;;;13.03;;
50585;SDS011;36542;51.700;8.846;2023-10-19T03:03:43;27.53;;;11.97;;
50585;SDS011;36542;51.700;8.846;2023-10-19T03:06:09;27.17;;;14.83;;
50585;SDS011;36542;51.700;8.846;2023-10-19T03:08:35;23.27;;;13.73;;
50585;SDS011;36542;51.700;8.846;2023-10-19T03:11:00;24.40;;;14.00;;
50585;SDS011;36542;51.700;8.846;2023-10-19T03:13:29;27.90;;;13.70;;
50585;SDS011;36542;51.700;8.846;2023-10-19T03:15:57;26.03;;;13.33;;
50585;SDS011;36542;51.700;8.846;2023-10-19T03:18:24;24.33;;;13.97;;
50585;SDS011;36542;51.700;8.846;2023-10-19T03:20:50;28.00;;;14.63;;
50585;SDS011;36542;51.700;8.846;2023-10-19T03:23:16;29.60;;;15.10;;
50585;SDS011;36542;51.700;8.846;2023-10-19T03:25:42;25.50;;;14.97;;
50585;SDS011;36542;51.700;8.846;2023-10-19T03:28:26;22.37;;;13.53;;
50585;SDS011;36542;51.700;8.846;2023-10-19T03:30:51;22.10;;;12.73;;
50585;SDS011;36542;51.700;8.846;2023-10-19T03:33:20;26.93;;;14.60;;
50585;SDS011;36542;51.700;8.846;2023-10-19T03:35:51;21.23;;;11.07;;
50585;SDS011;36542;51.700;8.846;2023-10-19T03:38:19;24.60;;;13.03;;
50585;SDS011;36542;51.700;8.846;2023-10-19T03:40:47;23.90;;;13.13;;
50585;SDS011;36542;51.700;8.846;2023-10-19T03:43:17;13.47;;;8.27;;
50585;SDS011;36542;51.700;8.846;2023-10-19T03:45:46;11.47;;;6.03;;
50585;SDS011;36542;51.700;8.846;2023-10-19T03:48:19;6.80;;;5.23;;
50585;SDS011;36542;51.700;8.846;2023-10-19T03:51:03;12.67;;;6.23;;
50585;SDS011;36542;51.700;8.846;2023-10-19T03:53:30;10.43;;;5.23;;
50585;SDS011;36542;51.700;8.846;2023-10-19T03:55:57;5.60;;;4.40;;
50585;SDS011;36542;51.700;8.846;2023-10-19T03:58:23;12.93;;;6.57;;
50585;SDS011;36542;51.700;8.846;2023-10-19T04:00:48;14.77;;;5.17;;
50585;SDS011;36542;51.700;8.846;2023-10-19T04:03:17;9.87;;;4.63;;
50585;SDS011;36542;51.700;8.846;2023-10-19T04:05:43;9.20;;;4.37;;
50585;SDS011;36542;51.700;8.846;2023-10-19T04:08:13;8.73;;;5.03;;
50585;SDS011;36542;51.700;8.846;2023-10-19T04:10:41;7.93;;;3.97;;
50585;SDS011;36542;51.700;8.846;2023-10-19T04:13:25;12.30;;;4.50;;
50585;SDS011;36542;51.700;8.846;2023-10-19T04:15:50;6.47;;;4.03;;
50585;SDS011;36542;51.700;8.846;2023-10-19T04:18:18;8.40;;;4.53;;
50585;SDS011;36542;51.700;8.846;2023-10-19T04:20:43;5.83;;;3.87;;
50585;SDS011;36542;51.700;8.846;2023-10-19T04:23:15;8.27;;;4.67;;
50585;SDS011;36542;51.700;8.846;2023-10-19T04:25:41;7.17;;;3.90;;
50585;SDS011;36542;51.700;8.846;2023-10-19T04:28:06;8.97;;;4.07;;
50585;SDS011;36542;51.700;8.846;2023-10-19T04:30:32;6.80;;;4.27;;
50585;SDS011;36542;51.700;8.846;2023-10-19T04:33:02;8.63;;;4.10;;
50585;SDS011;36542;51.700;8.846;2023-10-19T04:35:28;3.53;;;2.73;;
50585;SDS011;36542;51.700;8.846;2023-10-19T04:37:59;5.97;;;3.73;;
50585;SDS011;36542;51.700;8.846;2023-10-19T04:40:24;11.50;;;6.47;;
50585;SDS011;36542;51.700;8.846;2023-10-19T04:42:51;15.60;;;8.20;;
50585;SDS011;36542;51.700;8.846;2023-10-19T04:45:18;12.23;;;7.17;;
50585;SDS011;36542;51.700;8.846;2023-10-19T04:47:44;9.77;;;7.20;;
50585;SDS011;36542;51.700;8.846;2023-10-19T04:50:10;12.20;;;7.27;;
50585;SDS011;36542;51.700;8.846;2023-10-19T04:52:36;12.40;;;7.27;;
50585;SDS011;36542;51.700;8.846;2023-10-19T04:55:02;12.03;;;7.57;;
50585;SDS011;36542;51.700;8.846;2023-10-19T04:57:28;14.30;;;8.70;;
50585;SDS011;36542;51.700;8.846;2023-10-19T04:59:53;15.20;;;9.20;;
50585;SDS011;36542;51.700;8.846;2023-10-19T05:02:20;14.97;;;10.07;;
50585;SDS011;36542;51.700;8.846;2023-10-19T05:04:45;16.23;;;9.83;;
50585;SDS011;36542;51.700;8.846;2023-10-19T05:07:11;15.17;;;10.83;;
50585;SDS011;36542;51.700;8.846;2023-10-19T05:09:39;17.77;;;11.83;;
50585;SDS011;36542;51.700;8.846;2023-10-19T05:12:06;16.70;;;11.00;;
50585;SDS011;36542;51.700;8.846;2023-10-19T05:14:34;15.90;;;11.57;;
50585;SDS011;36542;51.700;8.846;2023-10-19T05:17:01;17.20;;;12.53;;
50585;SDS011;36542;51.700;8.846;2023-10-19T05:19:29;17.63;;;12.60;;
50585;SDS011;36542;51.700;8.846;2023-10-19T05:21:59;18.57;;;12.17;;
50585;SDS011;36542;51.700;8.846;2023-10-19T05:24:24;17.07;;;11.20;;
50585;SDS011;36542;51.700;8.846;2023-10-19T05:26:50;16.00;;;11.17;;
50585;SDS011;36542;51.700;8.846;2023-10-19T05:29:18;15.27;;;11.43;;
50585;SDS011;36542;51.700;8.846;2023-10-19T05:31:44;19.27;;;12.57;;
50585;SDS011;36542;51.700;8.846;2023-10-19T05:34:09;17.37;;;10.90;;
50585;SDS011;36542;51.700;8.846;2023-10-19T05:36:53;20.67;;;12.23;;
50585;SDS011;36542;51.700;8.846;2023-10-19T05:39:23;19.03;;;13.00;;
50585;SDS011;36542;51.700;8.846;2023-10-19T05:41:52;20.20;;;13.53;;
50585;SDS011;36542;51.700;8.846;2023-10-19T05:44:20;19.57;;;12.07;;
50585;SDS011;36542;51.700;8.846;2023-10-19T05:46:49;16.60;;;12.03;;
50585;SDS011;36542;51.700;8.846;2023-10-19T05:49:16;21.30;;;12.80;;
50585;SDS011;36542;51.700;8.846;2023-10-19T05:51:42;17.73;;;11.43;;
50585;SDS011;36542;51.700;8.846;2023-10-19T05:54:09;21.13;;;12.93;;
50585;SDS011;36542;51.700;8.846;2023-10-19T05:56:35;14.60;;;10.17;;
50585;SDS011;36542;51.700;8.846;2023-10-19T05:59:00;17.93;;;11.73;;
50585;SDS011;36542;51.700;8.846;2023-10-19T06:01:27;17.77;;;11.13;;
50585;SDS011;36542;51.700;8.846;2023-10-19T06:03:52;17.00;;;11.43;;
50585;SDS011;36542;51.700;8.846;2023-10-19T06:06:21;18.50;;;11.63;;
50585;SDS011;36542;51.700;8.846;2023-10-19T06:08:47;13.50;;;10.23;;
50585;SDS011;36542;51.700;8.846;2023-10-19T06:11:14;15.63;;;10.83;;
50585;SDS011;36542;51.700;8.846;2023-10-19T06:13:40;16.33;;;9.93;;
50585;SDS011;36542;51.700;8.846;2023-10-19T06:16:05;15.20;;;10.67;;
50585;SDS011;36542;51.700;8.846;2023-10-19T06:18:31;17.90;;;10.57;;
50585;SDS011;36542;51.700;8.846;2023-10-19T06:20:56;16.30;;;10.80;;
50585;SDS011;36542;51.700;8.846;2023-10-19T06:23:22;15.40;;;10.20;;
50585;SDS011;36542;51.700;8.846;2023-10-19T06:25:47;16.07;;;10.53;;
50585;SDS011;36542;51.700;8.846;2023-10-19T06:28:13;18.43;;;11.93;;
50585;SDS011;36542;51.700;8.846;2023-10-19T06:30:40;19.80;;;13.53;;
50585;SDS011;36542;51.700;8.846;2023-10-19T06:33:06;19.27;;;13.47;;
50585;SDS011;36542;51.700;8.846;2023-10-19T06:35:32;22.57;;;13.63;;
50585;SDS011;36542;51.700;8.846;2023-10-19T06:37:58;19.63;;;12.07;;
50585;SDS011;36542;51.700;8.846;2023-10-19T06:40:25;21.07;;;13.83;;
50585;SDS011;36542;51.700;8.846;2023-10-19T06:42:54;19.63;;;12.33;;
50585;SDS011;36542;51.700;8.846;2023-10-19T06:45:21;16.63;;;11.20;;
50585;SDS011;36542;51.700;8.846;2023-10-19T06:47:47;18.40;;;12.67;;
50585;SDS011;36542;51.700;8.846;2023-10-19T06:50:15;18.47;;;12.43;;
50585;SDS011;36542;51.700;8.846;2023-10-19T06:52:43;19.67;;;10.60;;
50585;SDS011;36542;51.700;8.846;2023-10-19T06:55:10;17.20;;;10.67;;
50585;SDS011;36542;51.700;8.846;2023-10-19T06:57:42;18.23;;;10.40;;
50585;SDS011;36542;51.700;8.846;2023-10-19T07:00:11;20.03;;;10.87;;
50585;SDS011;36542;51.700;8.846;2023-10-19T07:02:44;15.27;;;10.50;;
50585;SDS011;36542;51.700;8.846;2023-10-19T07:05:11;13.97;;;10.50;;
50585;SDS011;36542;51.700;8.846;2023-10-19T07:07:39;17.90;;;10.70;;
50585;SDS011;36542;51.700;8.846;2023-10-19T07:10:09;14.47;;;9.90;;
50585;SDS011;36542;51.700;8.846;2023-10-19T07:12:37;15.23;;;9.77;;
50585;SDS011;36542;51.700;8.846;2023-10-19T07:15:04;13.13;;;8.60;;
50585;SDS011;36542;51.700;8.846;2023-10-19T07:17:32;14.70;;;9.13;;
50585;SDS011;36542;51.700;8.846;2023-10-19T07:20:03;13.10;;;8.47;;
50585;SDS011;36542;51.700;8.846;2023-10-19T07:22:33;13.57;;;8.47;;
50585;SDS011;36542;51.700;8.846;2023-10-19T07:24:59;10.27;;;7.47;;
50585;SDS011;36542;51.700;8.846;2023-10-19T07:27:25;13.60;;;8.30;;
50585;SDS011;36542;51.700;8.846;2023-10-19T07:29:53;11.23;;;7.70;;
50585;SDS011;36542;51.700;8.846;2023-10-19T07:32:19;13.40;;;8.30;;
50585;SDS011;36542;51.700;8.846;2023-10-19T07:34:44;12.47;;;8.03;;
50585;SDS011;36542;51.700;8.846;2023-10-19T07:37:10;10.90;;;7.60;;
50585;SDS011;36542;51.700;8.846;2023-10-19T07:39:40;11.90;;;8.70;;
50585;SDS011;36542;51.700;8.846;2023-10-19T07:42:12;10.63;;;7.80;;
50585;SDS011;36542;51.700;8.846;2023-10-19T07:44:39;13.13;;;8.87;;
50585;SDS011;36542;51.700;8.846;2023-10-19T07:47:05;13.13;;;8.87;;
50585;SDS011;36542;51.700;8.846;2023-10-19T07:49:34;13.53;;;8.90;;
50585;SDS011;36542;51.700;8.846;2023-10-19T07:52:05;15.70;;;9.47;;
50585;SDS011;36542;51.700;8.846;2023-10-19T07:54:35;10.87;;;7.67;;
50585;SDS011;36542;51.700;8.846;2023-10-19T07:57:01;20.80;;;11.40;;
50585;SDS011;36542;51.700;8.846;2023-10-19T07:59:30;15.53;;;10.93;;
50585;SDS011;36542;51.700;8.846;2023-10-19T08:02:02;13.67;;;9.87;;
50585;SDS011;36542;51.700;8.846;2023-10-19T08:04:29;12.60;;;8.27;;
50585;SDS011;36542;51.700;8.846;2023-10-19T08:06:55;11.43;;;8.10;;
50585;SDS011;36542;51.700;8.846;2023-10-19T08:09:22;12.97;;;8.23;;
50585;SDS011;36542;51.700;8.846;2023-10-19T08:11:48;12.90;;;8.37;;
50585;SDS011;36542;51.700;8.846;2023-10-19T08:14:14;10.57;;;7.80;;
50585;SDS011;36542;51.700;8.846;2023-10-19T08:16:40;9.90;;;7.13;;
50585;SDS011;36542;51.700;8.846;2023-10-19T08:19:06;12.27;;;9.70;;
50585;SDS011;36542;51.700;8.846;2023-10-19T08:21:32;9.40;;;7.67;;
50585;SDS011;36542;51.700;8.846;2023-10-19T08:23:59;10.57;;;7.50;;
50585;SDS011;36542;51.700;8.846;2023-10-19T08:26:29;13.20;;;9.87;;
50585;SDS011;36542;51.700;8.846;2023-10-19T08:28:55;11.00;;;8.40;;
50585;SDS011;36542;51.700;8.846;2023-10-19T08:31:22;12.03;;;8.40;;
50585;SDS011;36542;51.700;8.846;2023-10-19T08:33:49;10.90;;;7.80;;
50585;SDS011;36542;51.700;8.846;2023-10-19T08:36:16;12.77;;;8.37;;
50585;SDS011;36542;51.700;8.846;2023-10-19T08:38:46;11.63;;;8.70;;
50585;SDS011;36542;51.700;8.846;2023-10-19T08:41:12;12.30;;;9.20;;
50585;SDS011;36542;51.700;8.846;2023-10-19T08:43:40;13.63;;;9.60;;
50585;SDS011;36542;51.700;8.846;2023-10-19T08:46:06;12.70;;;8.53;;
50585;SDS011;36542;51.700;8.846;2023-10-19T08:48:35;12.33;;;8.50;;
50585;SDS011;36542;51.700;8.846;2023-10-19T08:51:03;12.77;;;8.23;;
50585;SDS011;36542;51.700;8.846;2023-10-19T08:53:36;10.53;;;8.23;;
50585;SDS011;36542;51.700;8.846;2023-10-19T08:56:05;11.60;;;7.90;;
50585;SDS011;36542;51.700;8.846;2023-10-19T08:58:32;10.87;;;6.77;;
50585;SDS011;36542;51.700;8.846;2023-10-19T09:00:58;9.60;;;7.30;;
50585;SDS011;36542;51.700;8.846;2023-10-19T09:03:31;10.60;;;7.10;;
50585;SDS011;36542;51.700;8.846;2023-10-19T09:05:57;13.43;;;8.70;;
50585;SDS011;36542;51.700;8.846;2023-10-19T09:08:26;11.47;;;8.73;;
50585;SDS011;36542;51.700;8.846;2023-10-19T09:11:05;15.47;;;9.77;;
50585;SDS011;36542;51.700;8.846;2023-10-19T09:13:43;14.07;;;9.70;;
50585;SDS011;36542;51.700;8.846;2023-10-19T09:16:19;15.07;;;10.63;;
50585;SDS011;36542;51.700;8.846;2023-10-19T09:18:46;14.77;;;10.23;;
50585;SDS011;36542;51.700;8.846;2023-10-19T09:21:14;17.97;;;11.13;;
50585;SDS011;36542;51.700;8.846;2023-10-19T09:23:51;14.83;;;9.50;;
50585;SDS011;36542;51.700;8.846;2023-10-19T09:26:17;13.77;;;8.97;;
50585;SDS011;36542;51.700;8.846;2023-10-19T09:28:46;14.77;;;9.40;;
50585;SDS011;36542;51.700;8.846;2023-10-19T09:31:13;12.53;;;9.40;;
50585;SDS011;36542;51.700;8.846;2023-10-19T09:33:41;14.20;;;8.83;;
50585;SDS011;36542;51.700;8.846;2023-10-19T09:36:08;11.87;;;9.23;;
50585;SDS011;36542;51.700;8.846;2023-10-19T09:38:38;11.80;;;8.20;;
50585;SDS011;36542;51.700;8.846;2023-10-19T09:41:16;10.87;;;8.77;;
50585;SDS011;36542;51.700;8.846;2023-10-19T09:43:44;10.93;;;8.40;;
50585;SDS011;36542;51.700;8.846;2023-10-19T09:46:12;11.70;;;8.77;;
50585;SDS011;36542;51.700;8.846;2023-10-19T09:48:47;10.20;;;7.47;;
50585;SDS011;36542;51.700;8.846;2023-10-19T09:51:14;9.70;;;7.03;;
50585;SDS011;36542;51.700;8.846;2023-10-19T09:53:41;8.33;;;7.13;;
50585;SDS011;36542;51.700;8.846;2023-10-19T09:56:18;8.23;;;6.90;;
50585;SDS011;36542;51.700;8.846;2023-10-19T09:58:48;7.30;;;6.60;;
50585;SDS011;36542;51.700;8.846;2023-10-19T10:01:16;9.27;;;7.00;;
50585;SDS011;36542;51.700;8.846;2023-10-19T10:06:17;9.30;;;7.37;;
50585;SDS011;36542;51.700;8.846;2023-10-19T10:09:02;7.37;;;6.30;;
50585;SDS011;36542;51.700;8.846;2023-10-19T10:11:29;7.50;;;6.53;;
50585;SDS011;36542;51.700;8.846;2023-10-19T10:13:55;7.87;;;6.67;;
50585;SDS011;36542;51.700;8.846;2023-10-19T10:16:25;8.13;;;5.77;;
50585;SDS011;36542;51.700;8.846;2023-10-19T10:18:54;8.07;;;6.10;;
50585;SDS011;36542;51.700;8.846;2023-10-19T10:21:24;7.63;;;5.80;;
50585;SDS011;36542;51.700;8.846;2023-10-19T10:23:50;5.60;;;4.63;;
50585;SDS011;36542;51.700;8.846;2023-10-19T10:26:18;5.17;;;4.50;;
50585;SDS011;36542;51.700;8.846;2023-10-19T10:29:07;6.43;;;4.90;;
50585;SDS011;36542;51.700;8.846;2023-10-19T10:31:40;5.77;;;3.87;;
50585;SDS011;36542;51.700;8.846;2023-10-19T10:34:08;5.33;;;4.90;;
50585;SDS011;36542;51.700;8.846;2023-10-19T10:39:22;2.95;;;2.72;;
50585;SDS011;36542;51.700;8.846;2023-10-19T10:41:55;5.45;;;2.63;;
50585;SDS011;36542;51.700;8.846;2023-10-19T10:44:35;3.28;;;2.70;;
50585;SDS011;36542;51.700;8.846;2023-10-19T10:47:00;2.83;;;2.35;;
50585;SDS011;36542;51.700;8.846;2023-10-19T10:49:26;2.40;;;2.17;;
50585;SDS011;36542;51.700;8.846;2023-10-19T10:51:53;3.05;;;2.33;;
50585;SDS011;36542;51.700;8.846;2023-10-19T10:54:21;2.92;;;2.30;;
50585;SDS011;36542;51.700;8.846;2023-10-19T10:56:46;2.80;;;2.20;;
50585;SDS011;36542;51.700;8.846;2023-10-19T10:59:13;2.83;;;2.20;;
50585;SDS011;36542;51.700;8.846;2023-10-19T11:01:39;2.93;;;2.70;;
50585;SDS011;36542;51.700;8.846;2023-10-19T11:04:10;4.97;;;2.80;;
50585;SDS011;36542;51.700;8.846;2023-10-19T11:06:49;2.30;;;2.08;;
50585;SDS011;36542;51.700;8.846;2023-10-19T11:09:15;2.50;;;2.30;;
50585;SDS011;36542;51.700;8.846;2023-10-19T11:11:44;3.13;;;2.08;;
50585;SDS011;36542;51.700;8.846;2023-10-19T11:14:11;3.53;;;1.92;;
50585;SDS011;36542;51.700;8.846;2023-10-19T11:16:37;2.80;;;2.60;;
50585;SDS011;36542;51.700;8.846;2023-10-19T11:19:04;3.87;;;2.70;;
50585;SDS011;36542;51.700;8.846;2023-10-19T11:21:30;2.70;;;2.23;;
50585;SDS011;36542;51.700;8.846;2023-10-19T11:23:56;2.83;;;2.40;;
50585;SDS011;36542;51.700;8.846;2023-10-19T11:26:22;2.80;;;2.30;;
50585;SDS011;36542;51.700;8.846;2023-10-19T11:28:58;3.33;;;3.07;;
50585;SDS011;36542;51.700;8.846;2023-10-19T11:31:24;6.23;;;5.73;;
50585;SDS011;36542;51.700;8.846;2023-10-19T11:33:50;5.03;;;4.53;;
50585;SDS011;36542;51.700;8.846;2023-10-19T11:36:18;4.47;;;4.07;;
50585;SDS011;36542;51.700;8.846;2023-10-19T11:38:45;5.60;;;4.50;;
50585;SDS011;36542;51.700;8.846;2023-10-19T11:41:12;4.27;;;2.97;;
50585;SDS011;36542;51.700;8.846;2023-10-19T11:43:47;3.60;;;2.33;;
50585;SDS011;36542;51.700;8.846;2023-10-19T11:46:14;3.53;;;2.90;;
50585;SDS011;36542;51.700;8.846;2023-10-19T11:48:41;3.53;;;2.37;;
50585;SDS011;36542;51.700;8.846;2023-10-19T11:51:07;4.77;;;4.13;;
50585;SDS011;36542;51.700;8.846;2023-10-19T11:53:36;3.00;;;2.40;;
50585;SDS011;36542;51.700;8.846;2023-10-19T11:56:03;5.00;;;3.50;;
50585;SDS011;36542;51.700;8.846;2023-10-19T11:58:30;4.00;;;3.70;;
50585;SDS011;36542;51.700;8.846;2023-10-19T12:00:58;4.00;;;3.17;;
50585;SDS011;36542;51.700;8.846;2023-10-19T12:03:24;3.70;;;2.73;;
50585;SDS011;36542;51.700;8.846;2023-10-19T12:05:50;3.63;;;2.90;;
50585;SDS011;36542;51.700;8.846;2023-10-19T12:08:18;3.93;;;3.23;;
50585;SDS011;36542;51.700;8.846;2023-10-19T12:10:43;3.73;;;3.40;;
50585;SDS011;36542;51.700;8.846;2023-10-19T12:13:09;4.43;;;2.60;;
50585;SDS011;36542;51.700;8.846;2023-10-19T12:15:35;4.33;;;3.07;;
50585;SDS011;36542;51.700;8.846;2023-10-19T12:18:01;4.17;;;3.57;;
50585;SDS011;36542;51.700;8.846;2023-10-19T12:20:27;4.23;;;3.93;;
50585;SDS011;36542;51.700;8.846;2023-10-19T12:22:56;6.03;;;2.93;;
50585;SDS011;36542;51.700;8.846;2023-10-19T12:25:22;4.13;;;2.80;;
50585;SDS011;36542;51.700;8.846;2023-10-19T12:27:54;5.73;;;3.73;;
50585;SDS011;36542;51.700;8.846;2023-10-19T12:30:21;7.60;;;4.50;;
50585;SDS011;36542;51.700;8.846;2023-10-19T12:32:50;21.10;;;12.37;;
50585;SDS011;36542;51.700;8.846;2023-10-19T12:35:16;16.97;;;10.77;;
50585;SDS011;36542;51.700;8.846;2023-10-19T12:37:44;66.27;;;19.47;;
50585;SDS011;36542;51.700;8.846;2023-10-19T12:40:17;7.57;;;3.77;;
50585;SDS011;36542;51.700;8.846;2023-10-19T12:42:52;43.23;;;22.77;;
50585;SDS011;36542;51.700;8.846;2023-10-19T12:45:20;6.17;;;3.70;;
50585;SDS011;36542;51.700;8.846;2023-10-19T12:47:49;6.17;;;4.40;;
50585;SDS011;36542;51.700;8.846;2023-10-19T12:50:16;6.70;;;3.60;;
50585;SDS011;36542;51.700;8.846;2023-10-19T12:52:51;3.37;;;2.67;;
50585;SDS011;36542;51.700;8.846;2023-10-19T12:55:17;3.53;;;2.20;;
50585;SDS011;36542;51.700;8.846;2023-10-19T12:57:43;4.67;;;2.87;;
50585;SDS011;36542;51.700;8.846;2023-10-19T13:00:09;7.33;;;3.20;;
50585;SDS011;36542;51.700;8.846;2023-10-19T13:02:54;4.23;;;3.33;;
50585;SDS011;36542;51.700;8.846;2023-10-19T13:05:26;7.07;;;3.03;;
50585;SDS011;36542;51.700;8.846;2023-10-19T13:07:53;4.00;;;2.77;;
50585;SDS011;36542;51.700;8.846;2023-10-19T13:10:23;3.23;;;2.50;;
50585;SDS011;36542;51.700;8.846;2023-10-19T13:12:52;6.60;;;3.27;;
50585;SDS011;36542;51.700;8.846;2023-10-19T13:15:18;6.47;;;3.17;;
50585;SDS011;36542;51.700;8.846;2023-10-19T13:17:46;18.90;;;14.87;;
50585;SDS011;36542;51.700;8.846;2023-10-19T13:20:12;18.37;;;12.70;;
50585;SDS011;36542;51.700;8.846;2023-10-19T13:22:42;22.43;;;13.37;;
50585;SDS011;36542;51.700;8.846;2023-10-19T13:25:08;36.97;;;24.20;;
50585;SDS011;36542;51.700;8.846;2023-10-19T13:27:34;6.97;;;4.43;;
50585;SDS011;36542;51.700;8.846;2023-10-19T13:30:00;5.60;;;4.40;;
50585;SDS011;36542;51.700;8.846;2023-10-19T13:32:29;28.90;;;17.90;;
50585;SDS011;36542;51.700;8.846;2023-10-19T13:34:56;36.93;;;29.17;;
50585;SDS011;36542;51.700;8.846;2023-10-19T13:37:21;25.83;;;18.73;;
50585;SDS011;36542;51.700;8.846;2023-10-19T13:39:47;8.10;;;5.47;;
50585;SDS011;36542;51.700;8.846;2023-10-19T13:42:14;8.57;;;5.73;;
50585;SDS011;36542;51.700;8.846;2023-10-19T13:44:39;8.43;;;4.60;;
50585;SDS011;36542;51.700;8.846;2023-10-19T13:47:05;6.40;;;4.10;;
50585;SDS011;36542;51.700;8.846;2023-10-19T13:49:33;7.47;;;3.80;;
50585;SDS011;36542;51.700;8.846;2023-10-19T13:52:00;5.53;;;4.13;;
50585;SDS011;36542;51.700;8.846;2023-10-19T13:54:25;6.50;;;4.23;;
50585;SDS011;36542;51.700;8.846;2023-10-19T13:56:51;7.97;;;4.33;;
50585;SDS011;36542;51.700;8.846;2023-10-19T13:59:17;4.57;;;3.80;;
50585;SDS011;36542;51.700;8.846;2023-10-19T14:01:43;7.30;;;5.13;;
50585;SDS011;36542;51.700;8.846;2023-10-19T14:04:08;9.33;;;5.30;;
50585;SDS011;36542;51.700;8.846;2023-10-19T14:06:33;8.47;;;5.57;;
50585;SDS011;36542;51.700;8.846;2023-10-19T14:08:59;6.43;;;4.70;;
50585;SDS011;36542;51.700;8.846;2023-10-19T14:11:24;10.13;;;8.43;;
50585;SDS011;36542;51.700;8.846;2023-10-19T14:13:50;9.73;;;6.80;;
50585;SDS011;36542;51.700;8.846;2023-10-19T14:16:17;12.83;;;8.97;;
50585;SDS011;36542;51.700;8.846;2023-10-19T14:18:43;12.13;;;6.50;;
50585;SDS011;36542;51.700;8.846;2023-10-19T14:21:15;10.67;;;6.17;;
50585;SDS011;36542;51.700;8.846;2023-10-19T14:23:42;14.83;;;6.13;;
50585;SDS011;36542;51.700;8.846;2023-10-19T14:26:09;9.27;;;5.87;;
50585;SDS011;36542;51.700;8.846;2023-10-19T14:28:35;8.43;;;6.23;;
50585;SDS011;36542;51.700;8.846;2023-10-19T14:31:01;8.77;;;6.73;;
50585;SDS011;36542;51.700;8.846;2023-10-19T14:33:29;9.50;;;6.37;;
50585;SDS011;36542;51.700;8.846;2023-10-19T14:35:55;16.07;;;8.50;;
50585;SDS011;36542;51.700;8.846;2023-10-19T14:38:20;11.03;;;6.90;;
50585;SDS011;36542;51.700;8.846;2023-10-19T14:40:46;12.97;;;8.57;;
50585;SDS011;36542;51.700;8.846;2023-10-19T14:43:13;10.00;;;7.37;;
50585;SDS011;36542;51.700;8.846;2023-10-19T14:45:39;9.93;;;6.60;;
50585;SDS011;36542;51.700;8.846;2023-10-19T14:48:06;11.37;;;7.20;;
50585;SDS011;36542;51.700;8.846;2023-10-19T14:50:35;9.13;;;7.90;;
50585;SDS011;36542;51.700;8.846;2023-10-19T14:53:02;9.03;;;6.80;;
50585;SDS011;36542;51.700;8.846;2023-10-19T14:55:28;11.87;;;6.97;;
50585;SDS011;36542;51.700;8.846;2023-10-19T14:57:54;9.87;;;7.60;;
50585;SDS011;36542;51.700;8.846;2023-10-19T15:00:21;8.67;;;6.33;;
50585;SDS011;36542;51.700;8.846;2023-10-19T15:03:00;10.30;;;7.00;;